Aérodrome :
LOGIN :

S'inscrire | Disclaimer

   EN    FR    IT 

 










Légende :    VFR   VFR Marginal   IFR   IFR Intensif   IFR Très Intensif
Visi : 
Plafond : 
>= 8 km
>= 3000ft
5 à 8 km
1000 à 3000 ft
1500m à 5 km
500 à 1000 ft
800 à 1500m
200 à 500 ft
< 800m
< 200 ft
Symboles :   Orages  Brouillard  Fortes neiges  Fortes précipitations  Vent > 20 kt
SIGMETs :   Divers  Orages  Givrage  Turbulence  Onde Orograph.  Cendres Volcan.






- Altitude de l'aérodrome : 117 ft
- Code IATA : NWI


EGSH - Norwich

DERNIER METAR :
  • 190250Z AUTO 20010KT 160V230 6000 -RA BKN005/// OVC008/// 08/08 Q1004

METARs EXPIRÉS :
  • 190220Z AUTO 20011KT 160V230 9999 -RA BKN004/// OVC012/// 08/07 Q1005 RERA
  • 190150Z AUTO 20012G22KT 150V240 7000 -RA BKN004/// OVC007/// 08/07 Q1005
  • 190120Z AUTO 19010KT 150V250 7000 -RA OVC004/// 08/07 Q1006
  • 190050Z AUTO 19009KT 150V230 9999 -RA BKN004/// OVC011/// 08/07 Q1007 RERA
  • 190020Z AUTO 19010KT 160V240 4500 RA BKN005/// BKN008/// OVC041/// 07/07 Q1008
  • 182350Z AUTO 21011KT 160V230 7000 -RA BKN006/// OVC009/// 07/06 Q1009

TAF TAF EGSH
Valide du 19 à 03h jusqu'au 19 à 12h UTC


190154Z 1903/1912 20012KT 9999 SCT020
TEMPO 1903/1912 7000 -RA BKN008
PROB40
TEMPO 1903/1909 4000 RADZ BKN003
BECMG 1905/1908 24015G28KT
ATIS : +44 1603 420 640



MET'MAP, la Météo Aéronautique d'un coup d'oeil ! - Copyright ORBIFLY Décembre 2007 - Disclaimer

ORBIFLY MET'MAP TEAM :

Programmation & Développement : Alexandra Zaïnal
Sur une idée originale de : Baudouin d'Aumeries
Assistance à la programmation : Marc-Olivier Méhu
Soutien technique & logistique : Manuel Goepfert

Contact : metmap@orbifly.com




SOURCES & CREDITS :

   NOAA